sensor_id;sensor_type;location;lat;lon;timestamp;pressure;altitude;pressure_sealevel;temperature
76713;BMP280;65640;43.154;25.658;2023-11-19T00:00:04;100450.56;;;5.10
76713;BMP280;65640;43.154;25.658;2023-11-19T00:02:31;100450.56;;;5.10
76713;BMP280;65640;43.154;25.658;2023-11-19T00:04:57;100451.91;;;5.13
76713;BMP280;65640;43.154;25.658;2023-11-19T00:07:23;100447.72;;;5.12
76713;BMP280;65640;43.154;25.658;2023-11-19T00:09:48;100443.78;;;5.09
76713;BMP280;65640;43.154;25.658;2023-11-19T00:12:14;100442.31;;;5.13
76713;BMP280;65640;43.154;25.658;2023-11-19T00:14:39;100442.97;;;5.20
76713;BMP280;65640;43.154;25.658;2023-11-19T00:17:05;100440.06;;;5.17
76713;BMP280;65640;43.154;25.658;2023-11-19T00:19:30;100434.09;;;5.16
76713;BMP280;65640;43.154;25.658;2023-11-19T00:21:55;100439.84;;;5.18
76713;BMP280;65640;43.154;25.658;2023-11-19T00:24:21;100437.25;;;5.18
76713;BMP280;65640;43.154;25.658;2023-11-19T00:26:46;100436.69;;;5.16
76713;BMP280;65640;43.154;25.658;2023-11-19T00:29:11;100424.72;;;5.15
76713;BMP280;65640;43.154;25.658;2023-11-19T00:31:38;100430.38;;;5.12
76713;BMP280;65640;43.154;25.658;2023-11-19T00:34:04;100432.50;;;5.15
76713;BMP280;65640;43.154;25.658;2023-11-19T00:36:31;100432.84;;;5.19
76713;BMP280;65640;43.154;25.658;2023-11-19T00:38:56;100435.19;;;5.20
76713;BMP280;65640;43.154;25.658;2023-11-19T00:41:40;100434.88;;;5.17
76713;BMP280;65640;43.154;25.658;2023-11-19T00:44:05;100434.09;;;5.16
76713;BMP280;65640;43.154;25.658;2023-11-19T00:46:31;100435.66;;;5.17
76713;BMP280;65640;43.154;25.658;2023-11-19T00:48:57;100431.03;;;5.19
76713;BMP280;65640;43.154;25.658;2023-11-19T00:51:24;100427.88;;;5.17
76713;BMP280;65640;43.154;25.658;2023-11-19T00:53:50;100427.88;;;5.17
76713;BMP280;65640;43.154;25.658;2023-11-19T00:56:15;100419.09;;;5.18
76713;BMP280;65640;43.154;25.658;2023-11-19T00:58:42;100419.31;;;5.17
76713;BMP280;65640;43.154;25.658;2023-11-19T01:01:07;100425.75;;;5.14
76713;BMP280;65640;43.154;25.658;2023-11-19T01:03:33;100415.81;;;5.11
76713;BMP280;65640;43.154;25.658;2023-11-19T01:05:58;100420.00;;;5.12
76713;BMP280;65640;43.154;25.658;2023-11-19T01:08:26;100415.81;;;5.11
76713;BMP280;65640;43.154;25.658;2023-11-19T01:10:51;100421.00;;;5.11
76713;BMP280;65640;43.154;25.658;2023-11-19T01:13:16;100415.38;;;5.14
76713;BMP280;65640;43.154;25.658;2023-11-19T01:15:41;100424.72;;;5.15
76713;BMP280;65640;43.154;25.658;2023-11-19T01:18:07;100420.78;;;5.13
76713;BMP280;65640;43.154;25.658;2023-11-19T01:20:34;100416.94;;;5.15
76713;BMP280;65640;43.154;25.658;2023-11-19T01:22:59;100435.66;;;5.17
76713;BMP280;65640;43.154;25.658;2023-11-19T01:25:25;100434.88;;;5.17
76713;BMP280;65640;43.154;25.658;2023-11-19T01:27:50;100426.75;;;5.13
76713;BMP280;65640;43.154;25.658;2023-11-19T01:30:15;100433.75;;;5.13
76713;BMP280;65640;43.154;25.658;2023-11-19T01:32:41;100439.72;;;5.13
76713;BMP280;65640;43.154;25.658;2023-11-19T01:35:06;100452.25;;;5.16
76713;BMP280;65640;43.154;25.658;2023-11-19T01:37:33;100443.44;;;5.17
76713;BMP280;65640;43.154;25.658;2023-11-19T01:39:59;100444.69;;;5.15
76713;BMP280;65640;43.154;25.658;2023-11-19T01:42:25;100439.28;;;5.16
76713;BMP280;65640;43.154;25.658;2023-11-19T01:44:59;100447.63;;;5.18
76713;BMP280;65640;43.154;25.658;2023-11-19T01:47:25;100446.28;;;5.16
76713;BMP280;65640;43.154;25.658;2023-11-19T01:49:51;100442.88;;;5.15
76713;BMP280;65640;43.154;25.658;2023-11-19T01:52:17;100458.91;;;5.12
76713;BMP280;65640;43.154;25.658;2023-11-19T01:54:42;100448.06;;;5.15
76713;BMP280;65640;43.154;25.658;2023-11-19T01:57:08;100441.66;;;5.18
76713;BMP280;65640;43.154;25.658;2023-11-19T01:59:34;100440.63;;;5.19
76713;BMP280;65640;43.154;25.658;2023-11-19T02:01:59;100449.66;;;5.16
76713;BMP280;65640;43.154;25.658;2023-11-19T02:04:24;100429.69;;;5.17
76713;BMP280;65640;43.154;25.658;2023-11-19T02:06:50;100438.81;;;5.19
76713;BMP280;65640;43.154;25.658;2023-11-19T02:09:17;100437.25;;;5.18
76713;BMP280;65640;43.154;25.658;2023-11-19T02:11:44;100432.59;;;5.20
76713;BMP280;65640;43.154;25.658;2023-11-19T02:14:10;100440.38;;;5.20
76713;BMP280;65640;43.154;25.658;2023-11-19T02:16:36;100436.78;;;5.21
76713;BMP280;65640;43.154;25.658;2023-11-19T02:19:01;100441.97;;;5.21
76713;BMP280;65640;43.154;25.658;2023-11-19T02:21:27;100437.56;;;5.22
76713;BMP280;65640;43.154;25.658;2023-11-19T02:23:52;100439.13;;;5.23
76713;BMP280;65640;43.154;25.658;2023-11-19T02:26:36;100450.31;;;5.23
76713;BMP280;65640;43.154;25.658;2023-11-19T02:29:04;100440.94;;;5.22
76713;BMP280;65640;43.154;25.658;2023-11-19T02:31:31;100439.38;;;5.21
76713;BMP280;65640;43.154;25.658;2023-11-19T02:33:57;100439.59;;;5.20
76713;BMP280;65640;43.154;25.658;2023-11-19T02:36:22;100442.53;;;5.23
76713;BMP280;65640;43.154;25.658;2023-11-19T02:38:47;100436.78;;;5.21
76713;BMP280;65640;43.154;25.658;2023-11-19T02:41:13;100443.09;;;5.25
76713;BMP280;65640;43.154;25.658;2023-11-19T02:43:39;100440.16;;;5.22
76713;BMP280;65640;43.154;25.658;2023-11-19T02:46:04;100446.69;;;5.24
76713;BMP280;65640;43.154;25.658;2023-11-19T02:48:33;100446.13;;;5.22
76713;BMP280;65640;43.154;25.658;2023-11-19T02:51:00;100438.56;;;5.21
76713;BMP280;65640;43.154;25.658;2023-11-19T02:53:25;100448.72;;;5.22
76713;BMP280;65640;43.154;25.658;2023-11-19T02:55:52;100448.50;;;5.24
76713;BMP280;65640;43.154;25.658;2023-11-19T02:58:18;100455.28;;;5.25
76713;BMP280;65640;43.154;25.658;2023-11-19T03:00:48;100459.91;;;5.23
76713;BMP280;65640;43.154;25.658;2023-11-19T03:03:22;100472.66;;;5.24
76713;BMP280;65640;43.154;25.658;2023-11-19T03:05:47;100471.06;;;5.23
76713;BMP280;65640;43.154;25.658;2023-11-19T03:08:13;100477.28;;;5.22
76713;BMP280;65640;43.154;25.658;2023-11-19T03:10:38;100474.44;;;5.24
76713;BMP280;65640;43.154;25.658;2023-11-19T03:13:04;100471.16;;;5.28
76713;BMP280;65640;43.154;25.658;2023-11-19T03:15:29;100469.50;;;5.22
76713;BMP280;65640;43.154;25.658;2023-11-19T03:17:54;100465.88;;;5.23
76713;BMP280;65640;43.154;25.658;2023-11-19T03:20:20;100474.22;;;5.25
76713;BMP280;65640;43.154;25.658;2023-11-19T03:22:46;100483.47;;;5.21
76713;BMP280;65640;43.154;25.658;2023-11-19T03:25:11;100473.88;;;5.22
76713;BMP280;65640;43.154;25.658;2023-11-19T03:27:38;100479.88;;;5.22
76713;BMP280;65640;43.154;25.658;2023-11-19T03:30:04;100483.94;;;5.18
76713;BMP280;65640;43.154;25.658;2023-11-19T03:32:30;100478.50;;;5.20
76713;BMP280;65640;43.154;25.658;2023-11-19T03:34:55;100486.06;;;5.21
76713;BMP280;65640;43.154;25.658;2023-11-19T03:37:21;100482.69;;;5.21
76713;BMP280;65640;43.154;25.658;2023-11-19T03:39:46;100483.94;;;5.18
76713;BMP280;65640;43.154;25.658;2023-11-19T03:42:11;100485.75;;;5.18
76713;BMP280;65640;43.154;25.658;2023-11-19T03:44:38;100489.94;;;5.19
76713;BMP280;65640;43.154;25.658;2023-11-19T03:47:03;100486.78;;;5.17
76713;BMP280;65640;43.154;25.658;2023-11-19T03:49:29;100495.22;;;5.12
76713;BMP280;65640;43.154;25.658;2023-11-19T03:51:54;100493.19;;;5.14
76713;BMP280;65640;43.154;25.658;2023-11-19T03:54:19;100498.38;;;5.14
76713;BMP280;65640;43.154;25.658;2023-11-19T03:56:45;100503.13;;;5.17
76713;BMP280;65640;43.154;25.658;2023-11-19T03:59:10;100515.53;;;5.15
76713;BMP280;65640;43.154;25.658;2023-11-19T04:01:36;100512.94;;;5.15
76713;BMP280;65640;43.154;25.658;2023-11-19T04:04:02;100516.31;;;5.16
76713;BMP280;65640;43.154;25.658;2023-11-19T04:06:27;100510.13;;;5.17
76713;BMP280;65640;43.154;25.658;2023-11-19T04:08:53;100525.69;;;5.17
76713;BMP280;65640;43.154;25.658;2023-11-19T04:11:18;100521.84;;;5.19
76713;BMP280;65640;43.154;25.658;2023-11-19T04:13:43;100528.28;;;5.17
76713;BMP280;65640;43.154;25.658;2023-11-19T04:16:09;100543.50;;;5.13
76713;BMP280;65640;43.154;25.658;2023-11-19T04:18:34;100537.75;;;5.11
76713;BMP280;65640;43.154;25.658;2023-11-19T04:20:59;100538.31;;;5.13
76713;BMP280;65640;43.154;25.658;2023-11-19T04:23:24;100554.44;;;5.15
76713;BMP280;65640;43.154;25.658;2023-11-19T04:25:50;100556.25;;;5.15
76713;BMP280;65640;43.154;25.658;2023-11-19T04:28:15;100554.88;;;5.12
76713;BMP280;65640;43.154;25.658;2023-11-19T04:30:41;100557.47;;;5.12
76713;BMP280;65640;43.154;25.658;2023-11-19T04:33:06;100560.88;;;5.13
76713;BMP280;65640;43.154;25.658;2023-11-19T04:35:31;100563.69;;;5.11
76713;BMP280;65640;43.154;25.658;2023-11-19T04:37:57;100581.41;;;5.14
76713;BMP280;65640;43.154;25.658;2023-11-19T04:40:22;100567.88;;;5.12
76713;BMP280;65640;43.154;25.658;2023-11-19T04:42:48;100576.66;;;5.11
76713;BMP280;65640;43.154;25.658;2023-11-19T04:45:13;100583.44;;;5.12
76713;BMP280;65640;43.154;25.658;2023-11-19T04:47:38;100581.84;;;5.11
76713;BMP280;65640;43.154;25.658;2023-11-19T04:50:04;100599.00;;;5.12
76713;BMP280;65640;43.154;25.658;2023-11-19T04:52:29;100603.75;;;5.15
76713;BMP280;65640;43.154;25.658;2023-11-19T04:54:54;100605.19;;;5.11
76713;BMP280;65640;43.154;25.658;2023-11-19T04:57:20;100608.59;;;5.12
76713;BMP280;65640;43.154;25.658;2023-11-19T04:59:45;100615.78;;;5.10
76713;BMP280;65640;43.154;25.658;2023-11-19T05:02:10;100622.56;;;5.11
76713;BMP280;65640;43.154;25.658;2023-11-19T05:04:35;100625.94;;;5.11
76713;BMP280;65640;43.154;25.658;2023-11-19T05:07:02;100627.22;;;5.09
76713;BMP280;65640;43.154;25.658;2023-11-19T05:09:28;100620.19;;;5.09
76713;BMP280;65640;43.154;25.658;2023-11-19T05:11:53;100625.38;;;5.09
76713;BMP280;65640;43.154;25.658;2023-11-19T05:14:19;100617.59;;;5.09
76713;BMP280;65640;43.154;25.658;2023-11-19T05:16:45;100614.25;;;5.09
76713;BMP280;65640;43.154;25.658;2023-11-19T05:19:10;100612.66;;;5.08
76713;BMP280;65640;43.154;25.658;2023-11-19T05:21:36;100629.00;;;5.08
76713;BMP280;65640;43.154;25.658;2023-11-19T05:24:04;100625.38;;;5.09
76713;BMP280;65640;43.154;25.658;2023-11-19T05:26:29;100628.44;;;5.06
76713;BMP280;65640;43.154;25.658;2023-11-19T05:28:55;100644.56;;;5.08
76713;BMP280;65640;43.154;25.658;2023-11-19T05:31:20;100654.97;;;5.08
76713;BMP280;65640;43.154;25.658;2023-11-19T05:33:45;100646.13;;;5.09
76713;BMP280;65640;43.154;25.658;2023-11-19T05:36:11;100655.75;;;5.09
76713;BMP280;65640;43.154;25.658;2023-11-19T05:38:37;100643.53;;;5.09
76713;BMP280;65640;43.154;25.658;2023-11-19T05:41:03;100647.97;;;5.09
76713;BMP280;65640;43.154;25.658;2023-11-19T05:43:28;100646.69;;;5.11
76713;BMP280;65640;43.154;25.658;2023-11-19T05:45:53;100653.47;;;5.12
76713;BMP280;65640;43.154;25.658;2023-11-19T05:48:18;100642.53;;;5.10
76713;BMP280;65640;43.154;25.658;2023-11-19T05:50:44;100651.25;;;5.16
76713;BMP280;65640;43.154;25.658;2023-11-19T05:53:09;100645.25;;;5.15
76713;BMP280;65640;43.154;25.658;2023-11-19T05:55:38;100643.88;;;5.13
76713;BMP280;65640;43.154;25.658;2023-11-19T05:58:11;100646.84;;;5.16
76713;BMP280;65640;43.154;25.658;2023-11-19T06:00:37;100648.44;;;5.17
76713;BMP280;65640;43.154;25.658;2023-11-19T06:03:03;100634.97;;;5.20
76713;BMP280;65640;43.154;25.658;2023-11-19T06:05:29;100641.97;;;5.20
76713;BMP280;65640;43.154;25.658;2023-11-19T06:07:54;100639.63;;;5.18
76713;BMP280;65640;43.154;25.658;2023-11-19T06:10:20;100647.63;;;5.17
76713;BMP280;65640;43.154;25.658;2023-11-19T06:12:45;100657.78;;;5.18
76713;BMP280;65640;43.154;25.658;2023-11-19T06:15:11;100662.41;;;5.16
76713;BMP280;65640;43.154;25.658;2023-11-19T06:17:36;100670.31;;;5.21
76713;BMP280;65640;43.154;25.658;2023-11-19T06:20:01;100668.97;;;5.19
76713;BMP280;65640;43.154;25.658;2023-11-19T06:22:29;100658.22;;;5.27
76713;BMP280;65640;43.154;25.658;2023-11-19T06:24:54;100660.59;;;5.28
76713;BMP280;65640;43.154;25.658;2023-11-19T06:27:21;100666.13;;;5.32
76713;BMP280;65640;43.154;25.658;2023-11-19T06:29:47;100668.88;;;5.37
76713;BMP280;65640;43.154;25.658;2023-11-19T06:32:12;100672.31;;;5.43
76713;BMP280;65640;43.154;25.658;2023-11-19T06:34:37;100670.81;;;5.42
76713;BMP280;65640;43.154;25.658;2023-11-19T06:37:03;100666.06;;;5.38
76713;BMP280;65640;43.154;25.658;2023-11-19T06:39:29;100672.13;;;5.56
76713;BMP280;65640;43.154;25.658;2023-11-19T06:41:54;100676.50;;;5.67
76713;BMP280;65640;43.154;25.658;2023-11-19T06:44:19;100670.31;;;5.68
76713;BMP280;65640;43.154;25.658;2023-11-19T06:46:45;100664.91;;;5.58
76713;BMP280;65640;43.154;25.658;2023-11-19T06:49:11;100681.03;;;5.60
76713;BMP280;65640;43.154;25.658;2023-11-19T06:51:40;100686.34;;;5.53
76713;BMP280;65640;43.154;25.658;2023-11-19T06:54:05;100686.66;;;5.45
76713;BMP280;65640;43.154;25.658;2023-11-19T06:56:31;100678.09;;;5.33
76713;BMP280;65640;43.154;25.658;2023-11-19T06:58:56;100685.66;;;5.34
76713;BMP280;65640;43.154;25.658;2023-11-19T07:01:21;100696.06;;;5.34
76713;BMP280;65640;43.154;25.658;2023-11-19T07:03:47;100687.59;;;5.39
76713;BMP280;65640;43.154;25.658;2023-11-19T07:06:12;100685.88;;;5.45
76713;BMP280;65640;43.154;25.658;2023-11-19T07:08:38;100691.06;;;5.45
76713;BMP280;65640;43.154;25.658;2023-11-19T07:11:03;100697.31;;;5.55
76713;BMP280;65640;43.154;25.658;2023-11-19T07:13:29;100699.69;;;5.57
76713;BMP280;65640;43.154;25.658;2023-11-19T07:15:55;100699.13;;;5.55
76713;BMP280;65640;43.154;25.658;2023-11-19T07:18:21;100704.09;;;5.56
76713;BMP280;65640;43.154;25.658;2023-11-19T07:20:47;100706.66;;;5.68
76713;BMP280;65640;43.154;25.658;2023-11-19T07:23:12;100709.94;;;5.75
76713;BMP280;65640;43.154;25.658;2023-11-19T07:25:42;100720.78;;;5.72
76713;BMP280;65640;43.154;25.658;2023-11-19T07:28:07;100710.06;;;5.80
76713;BMP280;65640;43.154;25.658;2023-11-19T07:30:32;100709.97;;;5.87
76713;BMP280;65640;43.154;25.658;2023-11-19T07:32:57;100722.91;;;5.98
76713;BMP280;65640;43.154;25.658;2023-11-19T07:35:23;100723.00;;;6.03
76713;BMP280;65640;43.154;25.658;2023-11-19T07:37:48;100723.78;;;6.16
76713;BMP280;65640;43.154;25.658;2023-11-19T07:40:15;100729.09;;;6.21
76713;BMP280;65640;43.154;25.658;2023-11-19T07:42:40;100733.25;;;6.22
76713;BMP280;65640;43.154;25.658;2023-11-19T07:45:06;100732.47;;;6.21
76713;BMP280;65640;43.154;25.658;2023-11-19T07:47:32;100741.19;;;6.27
76713;BMP280;65640;43.154;25.658;2023-11-19T07:49:57;100739.25;;;6.22
76713;BMP280;65640;43.154;25.658;2023-11-19T07:52:22;100733.84;;;6.12
76713;BMP280;65640;43.154;25.658;2023-11-19T07:54:49;100750.81;;;6.03
76713;BMP280;65640;43.154;25.658;2023-11-19T07:57:14;100745.06;;;6.01
76713;BMP280;65640;43.154;25.658;2023-11-19T07:59:40;100748.50;;;6.18
76713;BMP280;65640;43.154;25.658;2023-11-19T08:02:06;100751.13;;;6.30
76713;BMP280;65640;43.154;25.658;2023-11-19T08:04:31;100763.88;;;6.31
76713;BMP280;65640;43.154;25.658;2023-11-19T08:06:56;100766.56;;;6.36
76713;BMP280;65640;43.154;25.658;2023-11-19T08:09:21;100761.50;;;6.41
76713;BMP280;65640;43.154;25.658;2023-11-19T08:11:47;100757.06;;;6.42
76713;BMP280;65640;43.154;25.658;2023-11-19T08:14:13;100756.03;;;6.55
76713;BMP280;65640;43.154;25.658;2023-11-19T08:16:39;100746.94;;;6.57
76713;BMP280;65640;43.154;25.658;2023-11-19T08:19:04;100751.47;;;6.62
76713;BMP280;65640;43.154;25.658;2023-11-19T08:21:29;100749.19;;;6.65
76713;BMP280;65640;43.154;25.658;2023-11-19T08:23:55;100744.19;;;6.75
76713;BMP280;65640;43.154;25.658;2023-11-19T08:26:20;100754.19;;;6.83
76713;BMP280;65640;43.154;25.658;2023-11-19T08:28:45;100754.97;;;6.84
76713;BMP280;65640;43.154;25.658;2023-11-19T08:31:11;100764.03;;;6.93
76713;BMP280;65640;43.154;25.658;2023-11-19T08:33:36;100748.06;;;6.89
76713;BMP280;65640;43.154;25.658;2023-11-19T08:36:01;100776.53;;;6.96
76713;BMP280;65640;43.154;25.658;2023-11-19T08:38:29;100754.88;;;7.07
76713;BMP280;65640;43.154;25.658;2023-11-19T08:40:54;100757.72;;;7.06
76713;BMP280;65640;43.154;25.658;2023-11-19T08:43:24;100756.22;;;7.10
76713;BMP280;65640;43.154;25.658;2023-11-19T08:45:49;100747.50;;;7.16
76713;BMP280;65640;43.154;25.658;2023-11-19T08:48:15;100760.31;;;7.22
76713;BMP280;65640;43.154;25.658;2023-11-19T08:50:40;100763.53;;;7.41
76713;BMP280;65640;43.154;25.658;2023-11-19T08:53:05;100754.69;;;7.42
76713;BMP280;65640;43.154;25.658;2023-11-19T08:55:31;100760.09;;;7.57
76713;BMP280;65640;43.154;25.658;2023-11-19T08:57:57;100764.50;;;7.74
76713;BMP280;65640;43.154;25.658;2023-11-19T09:00:23;100773.66;;;7.76
76713;BMP280;65640;43.154;25.658;2023-11-19T09:02:48;100767.09;;;7.74
76713;BMP280;65640;43.154;25.658;2023-11-19T09:05:13;100756.38;;;7.87
76713;BMP280;65640;43.154;25.658;2023-11-19T09:07:39;100760.91;;;7.96
76713;BMP280;65640;43.154;25.658;2023-11-19T09:10:04;100750.66;;;7.90
76713;BMP280;65640;43.154;25.658;2023-11-19T09:12:30;100753.50;;;7.88
76713;BMP280;65640;43.154;25.658;2023-11-19T09:14:56;100756.38;;;7.87
76713;BMP280;65640;43.154;25.658;2023-11-19T09:17:21;100752.75;;;7.93
76713;BMP280;65640;43.154;25.658;2023-11-19T09:19:46;100755.44;;;7.98
76713;BMP280;65640;43.154;25.658;2023-11-19T09:22:12;100747.31;;;7.94
76713;BMP280;65640;43.154;25.658;2023-11-19T09:24:37;100738.94;;;7.92
76713;BMP280;65640;43.154;25.658;2023-11-19T09:27:03;100751.41;;;7.90
76713;BMP280;65640;43.154;25.658;2023-11-19T09:29:30;100748.28;;;8.10
76713;BMP280;65640;43.154;25.658;2023-11-19T09:31:56;100735.84;;;8.17
76713;BMP280;65640;43.154;25.658;2023-11-19T09:34:21;100729.66;;;8.23
76713;BMP280;65640;43.154;25.658;2023-11-19T09:36:46;100737.22;;;8.46
76713;BMP280;65640;43.154;25.658;2023-11-19T09:39:12;100729.84;;;8.38
76713;BMP280;65640;43.154;25.658;2023-11-19T09:41:40;100725.78;;;8.48
76713;BMP280;65640;43.154;25.658;2023-11-19T09:44:05;100731.72;;;8.70
76713;BMP280;65640;43.154;25.658;2023-11-19T09:46:31;100735.22;;;8.80
76713;BMP280;65640;43.154;25.658;2023-11-19T09:48:56;100735.31;;;8.91
76713;BMP280;65640;43.154;25.658;2023-11-19T09:51:22;100725.28;;;9.14
76713;BMP280;65640;43.154;25.658;2023-11-19T09:53:48;100723.31;;;9.32
76713;BMP280;65640;43.154;25.658;2023-11-19T09:56:14;100732.16;;;9.25
76713;BMP280;65640;43.154;25.658;2023-11-19T09:58:41;100743.56;;;9.09
76713;BMP280;65640;43.154;25.658;2023-11-19T10:01:07;100753.00;;;8.57
76713;BMP280;65640;43.154;25.658;2023-11-19T10:03:35;100739.31;;;8.23
76713;BMP280;65640;43.154;25.658;2023-11-19T10:06:03;100718.75;;;8.26
76713;BMP280;65640;43.154;25.658;2023-11-19T10:08:28;100713.56;;;8.53
76713;BMP280;65640;43.154;25.658;2023-11-19T10:10:54;100719.16;;;8.67
76713;BMP280;65640;43.154;25.658;2023-11-19T10:13:19;100731.13;;;8.63
76713;BMP280;65640;43.154;25.658;2023-11-19T10:15:50;100729.72;;;8.77
76713;BMP280;65640;43.154;25.658;2023-11-19T10:18:17;100716.53;;;8.94
76713;BMP280;65640;43.154;25.658;2023-11-19T10:20:42;100718.94;;;9.05
76713;BMP280;65640;43.154;25.658;2023-11-19T10:23:09;100710.56;;;8.98
76713;BMP280;65640;43.154;25.658;2023-11-19T10:25:35;100710.47;;;8.88
76713;BMP280;65640;43.154;25.658;2023-11-19T10:28:01;100708.75;;;8.99
76713;BMP280;65640;43.154;25.658;2023-11-19T10:30:28;100715.16;;;9.18
76713;BMP280;65640;43.154;25.658;2023-11-19T10:33:04;100697.69;;;9.23
76713;BMP280;65640;43.154;25.658;2023-11-19T10:35:30;100687.28;;;9.34
76713;BMP280;65640;43.154;25.658;2023-11-19T10:37:56;100686.72;;;9.26
76713;BMP280;65640;43.154;25.658;2023-11-19T10:40:23;100690.38;;;9.31
76713;BMP280;65640;43.154;25.658;2023-11-19T10:43:01;100685.00;;;9.42
76713;BMP280;65640;43.154;25.658;2023-11-19T10:45:26;100696.00;;;9.44
76713;BMP280;65640;43.154;25.658;2023-11-19T10:47:51;100703.03;;;9.44
76713;BMP280;65640;43.154;25.658;2023-11-19T10:50:17;100684.72;;;9.49
76713;BMP280;65640;43.154;25.658;2023-11-19T10:52:43;100691.31;;;9.56
76713;BMP280;65640;43.154;25.658;2023-11-19T10:55:09;100691.00;;;9.48
76713;BMP280;65640;43.154;25.658;2023-11-19T10:57:36;100687.94;;;9.56
76713;BMP280;65640;43.154;25.658;2023-11-19T11:00:02;100686.09;;;9.56
76713;BMP280;65640;43.154;25.658;2023-11-19T11:02:35;100679.91;;;9.78
76713;BMP280;65640;43.154;25.658;2023-11-19T11:05:01;100679.09;;;9.67
76713;BMP280;65640;43.154;25.658;2023-11-19T11:07:27;100697.41;;;9.77
76713;BMP280;65640;43.154;25.658;2023-11-19T11:09:54;100686.38;;;9.60
76713;BMP280;65640;43.154;25.658;2023-11-19T11:12:21;100692.19;;;9.72
76713;BMP280;65640;43.154;25.658;2023-11-19T11:14:47;100690.63;;;9.76
76713;BMP280;65640;43.154;25.658;2023-11-19T11:17:13;100668.41;;;9.74
76713;BMP280;65640;43.154;25.658;2023-11-19T11:19:42;100672.63;;;9.85
76713;BMP280;65640;43.154;25.658;2023-11-19T11:22:08;100663.97;;;9.79
76713;BMP280;65640;43.154;25.658;2023-11-19T11:30:04;100668.38;;;9.16
76713;BMP280;65640;43.154;25.658;2023-11-19T11:33:07;100673.56;;;9.11
76713;BMP280;65640;43.154;25.658;2023-11-19T11:35:24;100665.22;;;9.09
76713;BMP280;65640;43.154;25.658;2023-11-19T11:38:03;100669.25;;;9.32
76713;BMP280;65640;43.154;25.658;2023-11-19T11:40:29;100664.31;;;9.36
76713;BMP280;65640;43.154;25.658;2023-11-19T11:42:54;100674.47;;;9.32
76713;BMP280;65640;43.154;25.658;2023-11-19T11:45:19;100676.41;;;9.47
76713;BMP280;65640;43.154;25.658;2023-11-19T11:48:07;100675.34;;;9.43
76713;BMP280;65640;43.154;25.658;2023-11-19T11:50:33;100665.38;;;9.40
76713;BMP280;65640;43.154;25.658;2023-11-19T11:57:59;100670.13;;;9.53
76713;BMP280;65640;43.154;25.658;2023-11-19T12:00:27;100663.34;;;9.57
76713;BMP280;65640;43.154;25.658;2023-11-19T12:02:56;100659.19;;;9.56
76713;BMP280;65640;43.154;25.658;2023-11-19T12:05:22;100659.94;;;9.46
76713;BMP280;65640;43.154;25.658;2023-11-19T12:07:57;100661.53;;;9.57
76713;BMP280;65640;43.154;25.658;2023-11-19T12:10:24;100663.34;;;9.57
76713;BMP280;65640;43.154;25.658;2023-11-19T12:12:52;100667.28;;;9.54
76713;BMP280;65640;43.154;25.658;2023-11-19T12:15:17;100669.88;;;9.54
76713;BMP280;65640;43.154;25.658;2023-11-19T12:17:48;100671.78;;;9.64
76713;BMP280;65640;43.154;25.658;2023-11-19T12:20:17;100664.97;;;9.68
76713;BMP280;65640;43.154;25.658;2023-11-19T12:22:44;100669.69;;;9.66
76713;BMP280;65640;43.154;25.658;2023-11-19T12:25:10;100675.19;;;9.64
76713;BMP280;65640;43.154;25.658;2023-11-19T12:27:35;100668.16;;;9.70
76713;BMP280;65640;43.154;25.658;2023-11-19T12:30:03;100672.03;;;9.68
76713;BMP280;65640;43.154;25.658;2023-11-19T12:35:24;100655.06;;;9.70
76713;BMP280;65640;43.154;25.658;2023-11-19T12:37:49;100650.41;;;9.82
76713;BMP280;65640;43.154;25.658;2023-11-19T12:40:16;100650.41;;;9.87
76713;BMP280;65640;43.154;25.658;2023-11-19T12:42:42;100642.56;;;9.82
76713;BMP280;65640;43.154;25.658;2023-11-19T12:45:08;100650.91;;;9.84
76713;BMP280;65640;43.154;25.658;2023-11-19T12:47:35;100652.50;;;9.85
76713;BMP280;65640;43.154;25.658;2023-11-19T12:50:01;100650.69;;;9.91
76713;BMP280;65640;43.154;25.658;2023-11-19T12:52:26;100653.56;;;9.89
76713;BMP280;65640;43.154;25.658;2023-11-19T12:54:52;100647.50;;;9.84
76713;BMP280;65640;43.154;25.658;2023-11-19T12:57:17;100638.88;;;9.78
76713;BMP280;65640;43.154;25.658;2023-11-19T12:59:55;100635.72;;;9.71
76713;BMP280;65640;43.154;25.658;2023-11-19T13:02:23;100624.47;;;9.71
76713;BMP280;65640;43.154;25.658;2023-11-19T13:04:48;100617.16;;;9.68
76713;BMP280;65640;43.154;25.658;2023-11-19T13:07:15;100601.72;;;9.66
76713;BMP280;65640;43.154;25.658;2023-11-19T13:09:45;100594.41;;;9.68
76713;BMP280;65640;43.154;25.658;2023-11-19T13:12:14;100595.97;;;9.69
76713;BMP280;65640;43.154;25.658;2023-11-19T13:14:39;100586.81;;;9.61
76713;BMP280;65640;43.154;25.658;2023-11-19T13:17:07;100586.28;;;9.59
76713;BMP280;65640;43.154;25.658;2023-11-19T13:19:32;100596.97;;;9.58
76713;BMP280;65640;43.154;25.658;2023-11-19T13:21:57;100606.91;;;9.56
76713;BMP280;65640;43.154;25.658;2023-11-19T13:24:23;100598.53;;;9.54
76713;BMP280;65640;43.154;25.658;2023-11-19T13:26:48;100599.03;;;9.51
76713;BMP280;65640;43.154;25.658;2023-11-19T13:29:13;100591.19;;;9.51
76713;BMP280;65640;43.154;25.658;2023-11-19T13:31:39;100589.63;;;9.50
76713;BMP280;65640;43.154;25.658;2023-11-19T13:34:04;100596.97;;;9.53
76713;BMP280;65640;43.154;25.658;2023-11-19T13:36:32;100592.78;;;9.47
76713;BMP280;65640;43.154;25.658;2023-11-19T13:38:57;100590.63;;;9.39
76713;BMP280;65640;43.154;25.658;2023-11-19T13:41:27;100575.75;;;9.39
76713;BMP280;65640;43.154;25.658;2023-11-19T13:43:52;100575.75;;;9.34
76713;BMP280;65640;43.154;25.658;2023-11-19T13:46:18;100578.34;;;9.34
76713;BMP280;65640;43.154;25.658;2023-11-19T13:48:44;100570.75;;;9.27
76713;BMP280;65640;43.154;25.658;2023-11-19T13:51:09;100573.88;;;9.24
76713;BMP280;65640;43.154;25.658;2023-11-19T13:53:35;100579.59;;;9.21
76713;BMP280;65640;43.154;25.658;2023-11-19T13:56:00;100579.59;;;9.21
76713;BMP280;65640;43.154;25.658;2023-11-19T13:58:26;100574.38;;;9.21
76713;BMP280;65640;43.154;25.658;2023-11-19T14:00:51;100581.06;;;9.75
76713;BMP280;65640;43.154;25.658;2023-11-19T14:03:16;100577.75;;;10.15